sensor_id;sensor_type;location;lat;lon;timestamp;P1;durP1;ratioP1;P2;durP2;ratioP2
70981;SDS011;58640;51.320;9.456;2023-04-15T00:01:58;5.18;;;4.03;;
70981;SDS011;58640;51.320;9.456;2023-04-15T00:04:24;4.90;;;3.63;;
70981;SDS011;58640;51.320;9.456;2023-04-15T00:06:50;11.50;;;4.45;;
70981;SDS011;58640;51.320;9.456;2023-04-15T00:09:17;4.90;;;4.10;;
70981;SDS011;58640;51.320;9.456;2023-04-15T00:11:43;5.57;;;4.15;;
70981;SDS011;58640;51.320;9.456;2023-04-15T00:14:09;6.25;;;3.90;;
70981;SDS011;58640;51.320;9.456;2023-04-15T00:16:34;6.72;;;4.38;;
70981;SDS011;58640;51.320;9.456;2023-04-15T00:19:00;8.90;;;4.82;;
70981;SDS011;58640;51.320;9.456;2023-04-15T00:21:25;7.82;;;4.50;;
70981;SDS011;58640;51.320;9.456;2023-04-15T00:23:52;5.60;;;4.95;;
70981;SDS011;58640;51.320;9.456;2023-04-15T00:26:18;8.73;;;5.43;;
70981;SDS011;58640;51.320;9.456;2023-04-15T00:28:44;6.57;;;5.00;;
70981;SDS011;58640;51.320;9.456;2023-04-15T00:31:10;7.07;;;5.15;;
70981;SDS011;58640;51.320;9.456;2023-04-15T00:33:35;6.70;;;5.00;;
70981;SDS011;58640;51.320;9.456;2023-04-15T00:36:01;9.10;;;5.25;;
70981;SDS011;58640;51.320;9.456;2023-04-15T00:38:27;9.52;;;4.95;;
70981;SDS011;58640;51.320;9.456;2023-04-15T00:40:53;6.75;;;5.35;;
70981;SDS011;58640;51.320;9.456;2023-04-15T00:43:19;9.30;;;5.82;;
70981;SDS011;58640;51.320;9.456;2023-04-15T00:45:44;7.43;;;5.50;;
70981;SDS011;58640;51.320;9.456;2023-04-15T00:48:11;6.45;;;5.15;;
70981;SDS011;58640;51.320;9.456;2023-04-15T00:50:36;9.40;;;6.15;;
70981;SDS011;58640;51.320;9.456;2023-04-15T00:53:02;6.38;;;5.47;;
70981;SDS011;58640;51.320;9.456;2023-04-15T00:55:27;6.88;;;5.90;;
70981;SDS011;58640;51.320;9.456;2023-04-15T00:57:52;8.55;;;5.43;;
70981;SDS011;58640;51.320;9.456;2023-04-15T01:00:19;9.63;;;6.78;;
70981;SDS011;58640;51.320;9.456;2023-04-15T01:02:44;7.85;;;5.28;;
70981;SDS011;58640;51.320;9.456;2023-04-15T01:05:10;10.07;;;5.65;;
70981;SDS011;58640;51.320;9.456;2023-04-15T01:07:35;7.75;;;5.80;;
70981;SDS011;58640;51.320;9.456;2023-04-15T01:10:02;7.18;;;6.18;;
70981;SDS011;58640;51.320;9.456;2023-04-15T01:12:28;10.43;;;6.20;;
70981;SDS011;58640;51.320;9.456;2023-04-15T01:14:56;8.38;;;5.95;;
70981;SDS011;58640;51.320;9.456;2023-04-15T01:17:21;9.80;;;5.95;;
70981;SDS011;58640;51.320;9.456;2023-04-15T01:19:48;7.32;;;5.57;;
70981;SDS011;58640;51.320;9.456;2023-04-15T01:22:14;11.45;;;6.28;;
70981;SDS011;58640;51.320;9.456;2023-04-15T01:24:40;9.43;;;5.78;;
70981;SDS011;58640;51.320;9.456;2023-04-15T01:27:07;7.45;;;5.63;;
70981;SDS011;58640;51.320;9.456;2023-04-15T01:29:34;7.20;;;5.53;;
70981;SDS011;58640;51.320;9.456;2023-04-15T01:32:02;9.57;;;5.72;;
70981;SDS011;58640;51.320;9.456;2023-04-15T01:34:28;10.88;;;5.95;;
70981;SDS011;58640;51.320;9.456;2023-04-15T01:36:53;8.13;;;6.18;;
70981;SDS011;58640;51.320;9.456;2023-04-15T01:39:18;8.85;;;5.90;;
70981;SDS011;58640;51.320;9.456;2023-04-15T01:41:44;7.50;;;5.82;;
70981;SDS011;58640;51.320;9.456;2023-04-15T01:44:09;7.68;;;6.15;;
70981;SDS011;58640;51.320;9.456;2023-04-15T01:46:35;7.55;;;5.78;;
70981;SDS011;58640;51.320;9.456;2023-04-15T01:49:01;9.77;;;6.05;;
70981;SDS011;58640;51.320;9.456;2023-04-15T01:51:27;8.65;;;5.75;;
70981;SDS011;58640;51.320;9.456;2023-04-15T01:53:52;7.13;;;5.80;;
70981;SDS011;58640;51.320;9.456;2023-04-15T01:56:20;9.48;;;5.50;;
70981;SDS011;58640;51.320;9.456;2023-04-15T01:58:46;8.10;;;6.00;;
70981;SDS011;58640;51.320;9.456;2023-04-15T02:01:11;7.63;;;5.75;;
70981;SDS011;58640;51.320;9.456;2023-04-15T02:03:37;9.73;;;6.50;;
70981;SDS011;58640;51.320;9.456;2023-04-15T02:06:03;11.00;;;6.30;;
70981;SDS011;58640;51.320;9.456;2023-04-15T02:08:30;8.02;;;6.25;;
70981;SDS011;58640;51.320;9.456;2023-04-15T02:10:55;8.38;;;5.85;;
70981;SDS011;58640;51.320;9.456;2023-04-15T02:13:21;7.05;;;5.47;;
70981;SDS011;58640;51.320;9.456;2023-04-15T02:15:47;7.60;;;5.88;;
70981;SDS011;58640;51.320;9.456;2023-04-15T02:18:13;9.75;;;6.32;;
70981;SDS011;58640;51.320;9.456;2023-04-15T02:20:39;8.45;;;6.03;;
70981;SDS011;58640;51.320;9.456;2023-04-15T02:23:04;8.20;;;5.65;;
70981;SDS011;58640;51.320;9.456;2023-04-15T02:25:31;9.13;;;5.90;;
70981;SDS011;58640;51.320;9.456;2023-04-15T02:27:56;9.13;;;6.25;;
70981;SDS011;58640;51.320;9.456;2023-04-15T02:30:22;7.70;;;6.30;;
70981;SDS011;58640;51.320;9.456;2023-04-15T02:32:49;6.97;;;5.43;;
70981;SDS011;58640;51.320;9.456;2023-04-15T02:35:14;8.27;;;5.45;;
70981;SDS011;58640;51.320;9.456;2023-04-15T02:37:43;9.25;;;5.88;;
70981;SDS011;58640;51.320;9.456;2023-04-15T02:40:09;7.70;;;5.85;;
70981;SDS011;58640;51.320;9.456;2023-04-15T02:42:39;7.57;;;5.47;;
70981;SDS011;58640;51.320;9.456;2023-04-15T02:45:05;8.25;;;6.25;;
70981;SDS011;58640;51.320;9.456;2023-04-15T02:47:31;7.32;;;5.90;;
70981;SDS011;58640;51.320;9.456;2023-04-15T02:49:57;8.50;;;5.97;;
70981;SDS011;58640;51.320;9.456;2023-04-15T02:52:24;9.57;;;6.60;;
70981;SDS011;58640;51.320;9.456;2023-04-15T02:54:50;9.30;;;6.10;;
70981;SDS011;58640;51.320;9.456;2023-04-15T02:57:15;8.73;;;6.50;;
70981;SDS011;58640;51.320;9.456;2023-04-15T02:59:41;8.60;;;6.55;;
70981;SDS011;58640;51.320;9.456;2023-04-15T03:02:06;10.27;;;6.75;;
70981;SDS011;58640;51.320;9.456;2023-04-15T03:04:32;9.45;;;6.45;;
70981;SDS011;58640;51.320;9.456;2023-04-15T03:06:57;10.10;;;6.43;;
70981;SDS011;58640;51.320;9.456;2023-04-15T03:09:23;8.98;;;6.28;;
70981;SDS011;58640;51.320;9.456;2023-04-15T03:11:48;9.07;;;6.68;;
70981;SDS011;58640;51.320;9.456;2023-04-15T03:14:15;7.68;;;6.68;;
70981;SDS011;58640;51.320;9.456;2023-04-15T03:16:40;10.77;;;6.90;;
70981;SDS011;58640;51.320;9.456;2023-04-15T03:19:06;11.30;;;7.15;;
70981;SDS011;58640;51.320;9.456;2023-04-15T03:21:31;11.05;;;7.82;;
70981;SDS011;58640;51.320;9.456;2023-04-15T03:23:57;8.93;;;7.35;;
70981;SDS011;58640;51.320;9.456;2023-04-15T03:26:22;9.48;;;6.90;;
70981;SDS011;58640;51.320;9.456;2023-04-15T03:28:55;10.15;;;7.00;;
70981;SDS011;58640;51.320;9.456;2023-04-15T03:31:20;9.30;;;7.45;;
70981;SDS011;58640;51.320;9.456;2023-04-15T03:33:46;11.02;;;7.70;;
70981;SDS011;58640;51.320;9.456;2023-04-15T03:36:11;11.95;;;7.00;;
70981;SDS011;58640;51.320;9.456;2023-04-15T03:38:36;13.13;;;7.35;;
70981;SDS011;58640;51.320;9.456;2023-04-15T03:41:02;13.30;;;7.63;;
70981;SDS011;58640;51.320;9.456;2023-04-15T03:43:27;10.65;;;7.28;;
70981;SDS011;58640;51.320;9.456;2023-04-15T03:45:52;10.88;;;7.55;;
70981;SDS011;58640;51.320;9.456;2023-04-15T03:48:18;11.73;;;6.82;;
70981;SDS011;58640;51.320;9.456;2023-04-15T03:50:43;9.50;;;7.03;;
70981;SDS011;58640;51.320;9.456;2023-04-15T03:53:09;8.60;;;6.80;;
70981;SDS011;58640;51.320;9.456;2023-04-15T03:55:34;11.00;;;7.30;;
70981;SDS011;58640;51.320;9.456;2023-04-15T03:58:00;8.40;;;6.38;;
70981;SDS011;58640;51.320;9.456;2023-04-15T04:00:25;9.02;;;7.13;;
70981;SDS011;58640;51.320;9.456;2023-04-15T04:02:50;10.88;;;6.97;;
70981;SDS011;58640;51.320;9.456;2023-04-15T04:05:16;13.30;;;8.55;;
70981;SDS011;58640;51.320;9.456;2023-04-15T04:07:41;9.00;;;7.38;;
70981;SDS011;58640;51.320;9.456;2023-04-15T04:10:07;10.98;;;7.97;;
70981;SDS011;58640;51.320;9.456;2023-04-15T04:12:32;10.02;;;7.47;;
70981;SDS011;58640;51.320;9.456;2023-04-15T04:14:58;11.15;;;7.85;;
70981;SDS011;58640;51.320;9.456;2023-04-15T04:17:23;10.30;;;7.45;;
70981;SDS011;58640;51.320;9.456;2023-04-15T04:19:48;11.07;;;7.47;;
70981;SDS011;58640;51.320;9.456;2023-04-15T04:22:14;10.32;;;7.78;;
70981;SDS011;58640;51.320;9.456;2023-04-15T04:24:39;9.27;;;7.25;;
70981;SDS011;58640;51.320;9.456;2023-04-15T04:27:04;11.10;;;7.68;;
70981;SDS011;58640;51.320;9.456;2023-04-15T04:29:30;10.23;;;7.65;;
70981;SDS011;58640;51.320;9.456;2023-04-15T04:31:55;11.52;;;7.95;;
70981;SDS011;58640;51.320;9.456;2023-04-15T04:34:20;11.73;;;8.10;;
70981;SDS011;58640;51.320;9.456;2023-04-15T04:36:46;11.85;;;7.85;;
70981;SDS011;58640;51.320;9.456;2023-04-15T04:39:11;11.15;;;8.23;;
70981;SDS011;58640;51.320;9.456;2023-04-15T04:41:36;10.95;;;8.35;;
70981;SDS011;58640;51.320;9.456;2023-04-15T04:44:02;12.70;;;8.95;;
70981;SDS011;58640;51.320;9.456;2023-04-15T04:46:27;11.35;;;8.18;;
70981;SDS011;58640;51.320;9.456;2023-04-15T04:48:53;11.23;;;8.77;;
70981;SDS011;58640;51.320;9.456;2023-04-15T04:51:18;13.32;;;9.13;;
70981;SDS011;58640;51.320;9.456;2023-04-15T04:53:43;11.90;;;8.40;;
70981;SDS011;58640;51.320;9.456;2023-04-15T04:56:09;12.70;;;9.02;;
70981;SDS011;58640;51.320;9.456;2023-04-15T04:58:34;13.05;;;8.80;;
70981;SDS011;58640;51.320;9.456;2023-04-15T05:01:00;13.15;;;10.02;;
70981;SDS011;58640;51.320;9.456;2023-04-15T05:03:25;12.63;;;9.05;;
70981;SDS011;58640;51.320;9.456;2023-04-15T05:05:51;12.27;;;8.90;;
70981;SDS011;58640;51.320;9.456;2023-04-15T05:08:16;15.38;;;10.07;;
70981;SDS011;58640;51.320;9.456;2023-04-15T05:10:42;16.50;;;9.75;;
70981;SDS011;58640;51.320;9.456;2023-04-15T05:13:07;13.98;;;9.65;;
70981;SDS011;58640;51.320;9.456;2023-04-15T05:15:32;14.82;;;10.20;;
70981;SDS011;58640;51.320;9.456;2023-04-15T05:18:00;14.88;;;10.75;;
70981;SDS011;58640;51.320;9.456;2023-04-15T05:20:26;13.63;;;9.38;;
70981;SDS011;58640;51.320;9.456;2023-04-15T05:22:51;14.57;;;9.25;;
70981;SDS011;58640;51.320;9.456;2023-04-15T05:25:17;15.65;;;10.18;;
70981;SDS011;58640;51.320;9.456;2023-04-15T05:27:42;13.80;;;9.90;;
70981;SDS011;58640;51.320;9.456;2023-04-15T05:30:07;15.85;;;11.45;;
70981;SDS011;58640;51.320;9.456;2023-04-15T05:32:33;16.85;;;10.65;;
70981;SDS011;58640;51.320;9.456;2023-04-15T05:34:59;14.70;;;10.45;;
70981;SDS011;58640;51.320;9.456;2023-04-15T05:37:24;14.55;;;10.32;;
70981;SDS011;58640;51.320;9.456;2023-04-15T05:39:50;16.17;;;11.38;;
70981;SDS011;58640;51.320;9.456;2023-04-15T05:42:16;16.92;;;10.48;;
70981;SDS011;58640;51.320;9.456;2023-04-15T05:44:41;14.27;;;10.80;;
70981;SDS011;58640;51.320;9.456;2023-04-15T05:47:06;15.45;;;11.05;;
70981;SDS011;58640;51.320;9.456;2023-04-15T05:49:32;14.75;;;10.65;;
70981;SDS011;58640;51.320;9.456;2023-04-15T05:51:58;15.50;;;10.38;;
70981;SDS011;58640;51.320;9.456;2023-04-15T05:54:23;16.75;;;11.18;;
70981;SDS011;58640;51.320;9.456;2023-04-15T05:56:48;14.18;;;10.27;;
70981;SDS011;58640;51.320;9.456;2023-04-15T05:59:14;14.88;;;10.27;;
70981;SDS011;58640;51.320;9.456;2023-04-15T06:01:39;16.05;;;10.63;;
70981;SDS011;58640;51.320;9.456;2023-04-15T06:04:05;16.15;;;11.27;;
70981;SDS011;58640;51.320;9.456;2023-04-15T06:06:30;15.00;;;9.80;;
70981;SDS011;58640;51.320;9.456;2023-04-15T06:08:56;14.55;;;10.25;;
70981;SDS011;58640;51.320;9.456;2023-04-15T06:11:22;14.77;;;9.82;;
70981;SDS011;58640;51.320;9.456;2023-04-15T06:13:47;15.57;;;10.07;;
70981;SDS011;58640;51.320;9.456;2023-04-15T06:16:13;14.10;;;8.70;;
70981;SDS011;58640;51.320;9.456;2023-04-15T06:18:38;14.10;;;9.77;;
70981;SDS011;58640;51.320;9.456;2023-04-15T06:21:04;14.27;;;10.48;;
70981;SDS011;58640;51.320;9.456;2023-04-15T06:23:29;14.50;;;10.13;;
70981;SDS011;58640;51.320;9.456;2023-04-15T06:25:55;19.30;;;10.30;;
70981;SDS011;58640;51.320;9.456;2023-04-15T06:28:20;16.27;;;10.07;;
70981;SDS011;58640;51.320;9.456;2023-04-15T06:30:45;15.65;;;9.70;;
70981;SDS011;58640;51.320;9.456;2023-04-15T06:33:11;19.60;;;10.70;;
70981;SDS011;58640;51.320;9.456;2023-04-15T06:35:37;14.70;;;10.43;;
70981;SDS011;58640;51.320;9.456;2023-04-15T06:38:03;15.77;;;10.05;;
70981;SDS011;58640;51.320;9.456;2023-04-15T06:40:28;17.10;;;11.00;;
70981;SDS011;58640;51.320;9.456;2023-04-15T06:42:54;15.90;;;11.15;;
70981;SDS011;58640;51.320;9.456;2023-04-15T06:45:19;15.80;;;11.02;;
70981;SDS011;58640;51.320;9.456;2023-04-15T06:47:45;15.27;;;10.73;;
70981;SDS011;58640;51.320;9.456;2023-04-15T06:50:10;18.45;;;11.73;;
70981;SDS011;58640;51.320;9.456;2023-04-15T06:52:36;17.98;;;11.57;;
70981;SDS011;58640;51.320;9.456;2023-04-15T06:55:01;14.75;;;10.77;;
70981;SDS011;58640;51.320;9.456;2023-04-15T06:57:27;16.50;;;11.43;;
70981;SDS011;58640;51.320;9.456;2023-04-15T06:59:53;16.27;;;11.65;;
70981;SDS011;58640;51.320;9.456;2023-04-15T07:02:18;19.67;;;12.18;;
70981;SDS011;58640;51.320;9.456;2023-04-15T07:04:44;17.73;;;11.95;;
70981;SDS011;58640;51.320;9.456;2023-04-15T07:07:10;19.80;;;12.00;;
70981;SDS011;58640;51.320;9.456;2023-04-15T07:09:36;16.50;;;11.48;;
70981;SDS011;58640;51.320;9.456;2023-04-15T07:12:01;19.50;;;12.73;;
70981;SDS011;58640;51.320;9.456;2023-04-15T07:14:27;16.65;;;11.98;;
70981;SDS011;58640;51.320;9.456;2023-04-15T07:16:53;18.10;;;12.43;;
70981;SDS011;58640;51.320;9.456;2023-04-15T07:19:18;19.40;;;13.45;;
70981;SDS011;58640;51.320;9.456;2023-04-15T07:21:44;19.98;;;13.50;;
70981;SDS011;58640;51.320;9.456;2023-04-15T07:24:10;18.95;;;12.95;;
70981;SDS011;58640;51.320;9.456;2023-04-15T07:26:36;20.77;;;13.57;;
70981;SDS011;58640;51.320;9.456;2023-04-15T07:29:01;23.25;;;13.55;;
70981;SDS011;58640;51.320;9.456;2023-04-15T07:31:26;19.38;;;12.93;;
70981;SDS011;58640;51.320;9.456;2023-04-15T07:33:52;17.48;;;12.75;;
70981;SDS011;58640;51.320;9.456;2023-04-15T07:36:17;17.20;;;12.77;;
70981;SDS011;58640;51.320;9.456;2023-04-15T07:38:43;18.85;;;12.63;;
70981;SDS011;58640;51.320;9.456;2023-04-15T07:41:08;19.45;;;13.32;;
70981;SDS011;58640;51.320;9.456;2023-04-15T07:43:34;19.80;;;12.02;;
70981;SDS011;58640;51.320;9.456;2023-04-15T07:46:00;18.63;;;12.65;;
70981;SDS011;58640;51.320;9.456;2023-04-15T07:48:25;19.65;;;12.38;;
70981;SDS011;58640;51.320;9.456;2023-04-15T07:50:51;20.52;;;12.43;;
70981;SDS011;58640;51.320;9.456;2023-04-15T07:53:16;18.67;;;12.27;;
70981;SDS011;58640;51.320;9.456;2023-04-15T07:55:42;19.58;;;12.77;;
70981;SDS011;58640;51.320;9.456;2023-04-15T07:58:07;22.58;;;13.57;;
70981;SDS011;58640;51.320;9.456;2023-04-15T08:00:32;20.70;;;13.65;;
70981;SDS011;58640;51.320;9.456;2023-04-15T08:02:58;20.50;;;12.80;;
70981;SDS011;58640;51.320;9.456;2023-04-15T08:05:23;18.00;;;11.77;;
70981;SDS011;58640;51.320;9.456;2023-04-15T08:07:49;19.25;;;13.05;;
70981;SDS011;58640;51.320;9.456;2023-04-15T08:10:15;20.67;;;12.82;;
70981;SDS011;58640;51.320;9.456;2023-04-15T08:12:41;20.05;;;11.68;;
70981;SDS011;58640;51.320;9.456;2023-04-15T08:15:06;18.15;;;12.07;;
70981;SDS011;58640;51.320;9.456;2023-04-15T08:17:33;19.42;;;12.70;;
70981;SDS011;58640;51.320;9.456;2023-04-15T08:19:58;17.65;;;11.65;;
70981;SDS011;58640;51.320;9.456;2023-04-15T08:22:23;18.27;;;10.60;;
70981;SDS011;58640;51.320;9.456;2023-04-15T08:24:49;16.80;;;10.95;;
70981;SDS011;58640;51.320;9.456;2023-04-15T08:27:15;18.20;;;11.57;;
70981;SDS011;58640;51.320;9.456;2023-04-15T08:29:40;16.17;;;10.85;;
70981;SDS011;58640;51.320;9.456;2023-04-15T08:32:06;14.55;;;9.93;;
70981;SDS011;58640;51.320;9.456;2023-04-15T08:34:31;14.57;;;10.00;;
70981;SDS011;58640;51.320;9.456;2023-04-15T08:36:57;13.25;;;8.90;;
70981;SDS011;58640;51.320;9.456;2023-04-15T08:39:22;14.70;;;9.82;;
70981;SDS011;58640;51.320;9.456;2023-04-15T08:41:51;13.27;;;8.70;;
70981;SDS011;58640;51.320;9.456;2023-04-15T08:44:25;13.77;;;8.50;;
70981;SDS011;58640;51.320;9.456;2023-04-15T08:46:59;11.98;;;8.48;;
70981;SDS011;58640;51.320;9.456;2023-04-15T08:49:26;12.88;;;7.35;;
70981;SDS011;58640;51.320;9.456;2023-04-15T08:51:53;12.68;;;7.93;;
70981;SDS011;58640;51.320;9.456;2023-04-15T08:54:20;10.25;;;7.03;;
70981;SDS011;58640;51.320;9.456;2023-04-15T08:56:46;11.90;;;8.10;;
70981;SDS011;58640;51.320;9.456;2023-04-15T08:59:12;9.82;;;6.85;;
70981;SDS011;58640;51.320;9.456;2023-04-15T09:01:39;13.63;;;7.88;;
70981;SDS011;58640;51.320;9.456;2023-04-15T09:04:04;12.38;;;7.97;;
70981;SDS011;58640;51.320;9.456;2023-04-15T09:06:31;11.85;;;7.03;;
70981;SDS011;58640;51.320;9.456;2023-04-15T09:08:57;8.90;;;6.28;;
70981;SDS011;58640;51.320;9.456;2023-04-15T09:11:22;8.13;;;6.07;;
70981;SDS011;58640;51.320;9.456;2023-04-15T09:13:48;8.30;;;6.57;;
70981;SDS011;58640;51.320;9.456;2023-04-15T09:16:14;9.05;;;6.13;;
70981;SDS011;58640;51.320;9.456;2023-04-15T09:18:39;8.52;;;5.80;;
70981;SDS011;58640;51.320;9.456;2023-04-15T09:21:05;11.20;;;7.95;;
70981;SDS011;58640;51.320;9.456;2023-04-15T09:23:33;9.27;;;6.45;;
70981;SDS011;58640;51.320;9.456;2023-04-15T09:26:00;8.30;;;5.75;;
70981;SDS011;58640;51.320;9.456;2023-04-15T09:28:28;8.18;;;5.03;;
70981;SDS011;58640;51.320;9.456;2023-04-15T09:30:55;7.78;;;5.15;;
70981;SDS011;58640;51.320;9.456;2023-04-15T09:33:22;6.72;;;4.85;;
70981;SDS011;58640;51.320;9.456;2023-04-15T09:38:22;5.15;;;3.92;;
70981;SDS011;58640;51.320;9.456;2023-04-15T09:40:47;5.47;;;3.90;;
70981;SDS011;58640;51.320;9.456;2023-04-15T09:43:13;5.90;;;4.28;;
70981;SDS011;58640;51.320;9.456;2023-04-15T09:45:38;5.03;;;3.70;;
70981;SDS011;58640;51.320;9.456;2023-04-15T09:48:18;5.57;;;3.90;;
70981;SDS011;58640;51.320;9.456;2023-04-15T09:50:46;4.68;;;3.38;;
70981;SDS011;58640;51.320;9.456;2023-04-15T09:53:19;4.78;;;3.78;;
70981;SDS011;58640;51.320;9.456;2023-04-15T09:55:48;4.03;;;3.28;;
70981;SDS011;58640;51.320;9.456;2023-04-15T09:58:27;4.88;;;3.90;;
70981;SDS011;58640;51.320;9.456;2023-04-15T10:00:55;4.88;;;3.67;;
70981;SDS011;58640;51.320;9.456;2023-04-15T10:03:25;3.85;;;3.17;;
70981;SDS011;58640;51.320;9.456;2023-04-15T10:05:56;4.57;;;3.50;;
70981;SDS011;58640;51.320;9.456;2023-04-15T10:08:24;5.15;;;3.13;;
70981;SDS011;58640;51.320;9.456;2023-04-15T10:10:52;3.80;;;2.95;;
70981;SDS011;58640;51.320;9.456;2023-04-15T10:13:18;4.63;;;3.30;;
70981;SDS011;58640;51.320;9.456;2023-04-15T10:16:06;4.60;;;3.08;;
70981;SDS011;58640;51.320;9.456;2023-04-15T10:18:37;4.10;;;3.05;;
70981;SDS011;58640;51.320;9.456;2023-04-15T10:21:04;3.13;;;2.83;;
70981;SDS011;58640;51.320;9.456;2023-04-15T10:23:32;3.25;;;2.65;;
70981;SDS011;58640;51.320;9.456;2023-04-15T10:25:57;2.55;;;2.10;;
70981;SDS011;58640;51.320;9.456;2023-04-15T10:28:24;2.85;;;2.45;;
70981;SDS011;58640;51.320;9.456;2023-04-15T10:30:51;2.97;;;2.45;;
70981;SDS011;58640;51.320;9.456;2023-04-15T10:33:17;2.65;;;2.05;;
70981;SDS011;58640;51.320;9.456;2023-04-15T10:35:45;3.72;;;2.58;;
70981;SDS011;58640;51.320;9.456;2023-04-15T10:41:16;3.20;;;2.50;;
70981;SDS011;58640;51.320;9.456;2023-04-15T10:46:43;3.03;;;2.42;;
70981;SDS011;58640;51.320;9.456;2023-04-15T10:49:10;2.33;;;2.13;;
70981;SDS011;58640;51.320;9.456;2023-04-15T10:51:44;2.85;;;2.22;;
70981;SDS011;58640;51.320;9.456;2023-04-15T10:54:16;3.05;;;2.60;;
70981;SDS011;58640;51.320;9.456;2023-04-15T10:59:30;4.82;;;2.42;;
70981;SDS011;58640;51.320;9.456;2023-04-15T11:01:59;2.95;;;2.53;;
70981;SDS011;58640;51.320;9.456;2023-04-15T11:09:59;3.05;;;2.75;;
70981;SDS011;58640;51.320;9.456;2023-04-15T11:12:35;2.60;;;2.40;;
70981;SDS011;58640;51.320;9.456;2023-04-15T11:18:18;3.20;;;2.28;;
70981;SDS011;58640;51.320;9.456;2023-04-15T11:20:49;3.25;;;2.30;;
70981;SDS011;58640;51.320;9.456;2023-04-15T11:23:20;2.47;;;2.28;;
70981;SDS011;58640;51.320;9.456;2023-04-15T11:25:55;3.35;;;3.05;;
70981;SDS011;58640;51.320;9.456;2023-04-15T11:28:24;3.83;;;2.78;;
70981;SDS011;58640;51.320;9.456;2023-04-15T11:30:51;3.33;;;2.60;;
70981;SDS011;58640;51.320;9.456;2023-04-15T11:33:16;3.78;;;2.45;;
70981;SDS011;58640;51.320;9.456;2023-04-15T11:35:42;2.40;;;2.20;;
70981;SDS011;58640;51.320;9.456;2023-04-15T11:38:08;2.75;;;1.90;;
70981;SDS011;58640;51.320;9.456;2023-04-15T11:40:36;2.80;;;2.38;;
70981;SDS011;58640;51.320;9.456;2023-04-15T11:43:11;2.55;;;2.13;;
70981;SDS011;58640;51.320;9.456;2023-04-15T11:48:16;2.80;;;2.15;;
70981;SDS011;58640;51.320;9.456;2023-04-15T11:50:42;3.55;;;2.20;;
70981;SDS011;58640;51.320;9.456;2023-04-15T11:53:08;2.72;;;2.45;;
70981;SDS011;58640;51.320;9.456;2023-04-15T11:55:45;3.13;;;2.33;;
70981;SDS011;58640;51.320;9.456;2023-04-15T12:00:41;3.10;;;2.42;;
70981;SDS011;58640;51.320;9.456;2023-04-15T12:03:12;2.72;;;2.22;;
70981;SDS011;58640;51.320;9.456;2023-04-15T12:11:17;2.40;;;2.17;;
70981;SDS011;58640;51.320;9.456;2023-04-15T12:13:55;2.70;;;2.47;;
70981;SDS011;58640;51.320;9.456;2023-04-15T12:16:22;3.10;;;2.47;;
70981;SDS011;58640;51.320;9.456;2023-04-15T12:18:52;3.40;;;2.30;;
70981;SDS011;58640;51.320;9.456;2023-04-15T12:21:23;2.80;;;2.42;;
70981;SDS011;58640;51.320;9.456;2023-04-15T12:23:50;3.28;;;2.70;;
70981;SDS011;58640;51.320;9.456;2023-04-15T12:26:16;2.53;;;2.33;;
70981;SDS011;58640;51.320;9.456;2023-04-15T12:28:43;2.53;;;2.33;;
70981;SDS011;58640;51.320;9.456;2023-04-15T12:31:09;4.30;;;2.15;;
70981;SDS011;58640;51.320;9.456;2023-04-15T12:33:35;3.90;;;3.03;;
70981;SDS011;58640;51.320;9.456;2023-04-15T12:36:01;3.92;;;3.00;;
70981;SDS011;58640;51.320;9.456;2023-04-15T12:38:27;3.83;;;3.38;;
70981;SDS011;58640;51.320;9.456;2023-04-15T12:40:52;4.32;;;3.42;;
70981;SDS011;58640;51.320;9.456;2023-04-15T12:43:18;3.33;;;3.03;;
70981;SDS011;58640;51.320;9.456;2023-04-15T12:45:43;4.68;;;3.30;;
70981;SDS011;58640;51.320;9.456;2023-04-15T12:48:09;3.78;;;3.20;;
70981;SDS011;58640;51.320;9.456;2023-04-15T12:50:34;3.90;;;3.50;;
70981;SDS011;58640;51.320;9.456;2023-04-15T12:53:00;4.07;;;3.67;;
70981;SDS011;58640;51.320;9.456;2023-04-15T12:55:25;5.70;;;4.10;;
70981;SDS011;58640;51.320;9.456;2023-04-15T12:57:51;4.68;;;3.58;;
70981;SDS011;58640;51.320;9.456;2023-04-15T13:00:16;6.53;;;4.53;;
70981;SDS011;58640;51.320;9.456;2023-04-15T13:02:42;8.15;;;4.80;;
70981;SDS011;58640;51.320;9.456;2023-04-15T13:05:08;6.05;;;4.50;;
70981;SDS011;58640;51.320;9.456;2023-04-15T13:07:34;5.45;;;3.90;;
70981;SDS011;58640;51.320;9.456;2023-04-15T13:09:59;4.80;;;3.92;;
70981;SDS011;58640;51.320;9.456;2023-04-15T13:12:25;5.82;;;4.20;;
70981;SDS011;58640;51.320;9.456;2023-04-15T13:14:51;5.32;;;3.78;;
70981;SDS011;58640;51.320;9.456;2023-04-15T13:17:17;4.78;;;4.00;;
70981;SDS011;58640;51.320;9.456;2023-04-15T13:19:44;5.97;;;3.65;;
70981;SDS011;58640;51.320;9.456;2023-04-15T13:22:09;4.57;;;3.72;;
70981;SDS011;58640;51.320;9.456;2023-04-15T13:24:35;4.93;;;4.15;;
70981;SDS011;58640;51.320;9.456;2023-04-15T13:27:01;4.95;;;3.85;;
70981;SDS011;58640;51.320;9.456;2023-04-15T13:29:28;6.57;;;4.30;;
70981;SDS011;58640;51.320;9.456;2023-04-15T13:31:53;6.07;;;4.20;;
70981;SDS011;58640;51.320;9.456;2023-04-15T13:34:18;5.35;;;3.97;;
70981;SDS011;58640;51.320;9.456;2023-04-15T13:36:44;4.78;;;3.78;;
70981;SDS011;58640;51.320;9.456;2023-04-15T13:39:10;5.35;;;3.92;;
70981;SDS011;58640;51.320;9.456;2023-04-15T13:41:35;5.43;;;4.15;;
70981;SDS011;58640;51.320;9.456;2023-04-15T13:44:01;5.78;;;4.07;;
70981;SDS011;58640;51.320;9.456;2023-04-15T13:46:26;5.75;;;4.45;;
70981;SDS011;58640;51.320;9.456;2023-04-15T13:48:52;5.43;;;4.18;;
70981;SDS011;58640;51.320;9.456;2023-04-15T13:51:17;5.90;;;3.97;;
70981;SDS011;58640;51.320;9.456;2023-04-15T13:53:42;4.53;;;3.70;;
70981;SDS011;58640;51.320;9.456;2023-04-15T13:56:08;5.38;;;4.50;;
70981;SDS011;58640;51.320;9.456;2023-04-15T13:58:34;4.97;;;4.03;;
70981;SDS011;58640;51.320;9.456;2023-04-15T14:01:00;6.45;;;4.82;;
70981;SDS011;58640;51.320;9.456;2023-04-15T14:03:26;5.72;;;4.25;;
70981;SDS011;58640;51.320;9.456;2023-04-15T14:05:51;6.65;;;4.93;;
70981;SDS011;58640;51.320;9.456;2023-04-15T14:08:20;6.05;;;4.93;;
70981;SDS011;58640;51.320;9.456;2023-04-15T14:10:45;7.93;;;5.43;;
70981;SDS011;58640;51.320;9.456;2023-04-15T14:13:13;6.28;;;5.10;;
70981;SDS011;58640;51.320;9.456;2023-04-15T14:15:39;6.97;;;5.72;;
70981;SDS011;58640;51.320;9.456;2023-04-15T14:18:05;8.65;;;6.00;;
70981;SDS011;58640;51.320;9.456;2023-04-15T14:20:30;8.27;;;6.25;;
70981;SDS011;58640;51.320;9.456;2023-04-15T14:22:55;9.38;;;7.15;;
70981;SDS011;58640;51.320;9.456;2023-04-15T14:25:21;11.50;;;7.20;;
70981;SDS011;58640;51.320;9.456;2023-04-15T14:27:46;8.15;;;6.03;;
70981;SDS011;58640;51.320;9.456;2023-04-15T14:30:12;8.40;;;6.55;;
70981;SDS011;58640;51.320;9.456;2023-04-15T14:32:37;9.85;;;6.93;;
70981;SDS011;58640;51.320;9.456;2023-04-15T14:35:03;9.77;;;6.80;;
70981;SDS011;58640;51.320;9.456;2023-04-15T14:37:28;10.63;;;7.53;;
70981;SDS011;58640;51.320;9.456;2023-04-15T14:39:54;10.40;;;7.22;;
70981;SDS011;58640;51.320;9.456;2023-04-15T14:42:19;9.18;;;7.13;;
70981;SDS011;58640;51.320;9.456;2023-04-15T14:44:44;10.15;;;7.63;;
70981;SDS011;58640;51.320;9.456;2023-04-15T14:47:10;10.82;;;7.72;;
70981;SDS011;58640;51.320;9.456;2023-04-15T14:49:35;10.98;;;7.38;;
70981;SDS011;58640;51.320;9.456;2023-04-15T14:52:01;9.80;;;7.38;;
70981;SDS011;58640;51.320;9.456;2023-04-15T14:54:26;11.25;;;7.25;;
70981;SDS011;58640;51.320;9.456;2023-04-15T14:56:51;10.60;;;7.88;;
70981;SDS011;58640;51.320;9.456;2023-04-15T14:59:17;12.77;;;8.32;;
70981;SDS011;58640;51.320;9.456;2023-04-15T15:01:42;11.57;;;7.57;;
70981;SDS011;58640;51.320;9.456;2023-04-15T15:04:08;10.25;;;7.53;;